Time;durP1;ratioP1;P1;durP2;ratioP2;P2;SDS_P1;SDS_P2;PMS_P1;PMS_P2;Temp;Humidity;BMP_temperature;BMP_pressure;BME280_temperature;BME280_humidity;BME280_pressure;Samples;Min_cycle;Max_cycle;Signal;HPM_P1;HPM_P2
2022/06/24 00:00:48;;;;;;;6.68;3.83;;;;;;;17.53;80.90;100201.66;5033389;28;20029;-73
2022/06/24 00:03:18;;;;;;;8.85;3.97;;;;;;;17.82;80.49;100240.06;4998554;28;20110;-76
2022/06/24 00:05:46;;;;;;;7.72;3.95;;;;;;;17.71;80.38;100250.47;5016061;28;20025;-74
2022/06/24 00:08:11;;;;;;;8.43;4.20;;;;;;;17.53;80.91;100251.25;5033466;28;20040;-74
2022/06/24 00:10:37;;;;;;;5.72;3.60;;;;;;;17.37;81.26;100257.25;5033762;28;20021;-75
2022/06/24 00:13:04;;;;;;;6.55;4.00;;;;;;;17.28;82.13;100255.47;5033220;28;20029;-74
2022/06/24 00:15:35;;;;;;;4.78;3.55;;;;;;;17.26;81.73;100231.13;5033486;28;20032;-75
2022/06/24 00:18:15;;;;;;;5.68;3.97;;;;;;;17.42;81.80;100256.44;5033962;28;20032;-75
2022/06/24 00:20:48;;;;;;;5.90;3.40;;;;;;;17.45;82.47;100258.19;5033065;28;20032;-78
2022/06/24 00:23:21;;;;;;;8.27;3.90;;;;;;;17.35;82.13;100230.31;5033437;28;20183;-74
2022/06/24 00:25:49;;;;;;;8.48;3.88;;;;;;;17.17;80.77;100195.44;5032739;28;20025;-75
2022/06/24 00:28:15;;;;;;;4.78;3.67;;;;;;;17.37;81.08;100246.81;5032854;28;20017;-76
2022/06/24 00:30:49;;;;;;;6.50;3.55;;;;;;;17.29;81.01;100247.63;5013165;28;20504;-74
2022/06/24 00:33:17;;;;;;;5.15;3.80;;;;;;;17.33;81.57;100258.13;5015479;28;20026;-74
2022/06/24 00:35:46;;;;;;;7.45;4.55;;;;;;;17.26;81.18;100238.94;5012416;28;20037;-74
2022/06/24 00:38:22;;;;;;;6.55;3.70;;;;;;;17.23;82.12;100247.59;5010338;28;20041;-73
2022/06/24 00:40:50;;;;;;;5.88;3.88;;;;;;;17.24;82.37;100251.09;5012792;28;20095;-75
2022/06/24 00:43:25;;;;;;;8.75;4.03;;;;;;;17.32;82.08;100245.94;5013056;28;20147;-75
2022/06/24 00:45:58;;;;;;;7.55;4.03;;;;;;;17.01;82.42;100184.03;5012745;28;20615;-73
2022/06/24 00:48:28;;;;;;;5.13;3.75;;;;;;;17.23;82.55;100221.50;4994316;28;20038;-74
2022/06/24 00:50:54;;;;;;;7.13;4.00;;;;;;;17.41;82.92;100253.81;4997964;28;20041;-76
2022/06/24 00:53:20;;;;;;;5.47;3.95;;;;;;;16.88;82.60;100167.38;5012776;28;20421;-74
2022/06/24 00:55:47;;;;;;;7.35;4.15;;;;;;;16.88;82.45;100182.16;5012491;28;20112;-76
2022/06/24 00:58:16;;;;;;;6.72;4.03;;;;;;;17.18;82.06;100253.66;5012566;28;20025;-73
2022/06/24 01:00:49;;;;;;;7.80;3.85;;;;;;;17.06;81.65;100260.56;4995227;28;20026;-75
2022/06/24 01:03:15;;;;;;;8.43;4.30;;;;;;;16.89;82.26;100236.91;5012588;28;20041;-76
2022/06/24 01:05:42;;;;;;;8.00;4.00;;;;;;;16.75;81.58;100194.25;5012645;28;20505;-74
2022/06/24 01:08:10;;;;;;;7.18;3.92;;;;;;;16.98;81.05;100230.94;5012364;28;20026;-81
2022/06/24 01:10:37;;;;;;;6.75;3.55;;;;;;;17.07;80.68;100238.84;5012390;28;20022;-75
2022/06/24 01:13:07;;;;;;;6.20;3.63;;;;;;;16.94;80.31;100208.31;5025884;28;20224;-74
2022/06/24 01:15:32;;;;;;;6.68;3.67;;;;;;;17.03;79.87;100207.50;5032304;28;20393;-75
2022/06/24 01:17:58;;;;;;;6.30;4.05;;;;;;;17.16;80.47;100242.34;5014799;28;20036;-73
2022/06/24 01:20:23;;;;;;;5.53;3.90;;;;;;;17.08;81.48;100237.09;5032404;28;20030;-76
2022/06/24 01:22:49;;;;;;;6.10;3.63;;;;;;;16.90;82.91;100243.88;5032326;28;20013;-73
2022/06/24 01:25:14;;;;;;;7.32;4.00;;;;;;;16.69;82.91;100217.66;5029584;28;20041;-75
2022/06/24 01:27:40;;;;;;;6.18;3.88;;;;;;;16.70;82.82;100209.84;5029782;28;20064;-77
2022/06/24 01:30:06;;;;;;;6.20;3.33;;;;;;;16.74;82.81;100229.84;5029903;28;20464;-74
2022/06/24 01:32:33;;;;;;;6.60;3.80;;;;;;;16.56;82.70;100204.53;5026608;28;20033;-72
2022/06/24 01:34:58;;;;;;;10.48;3.90;;;;;;;16.73;82.68;100235.94;5029790;28;20052;-75
2022/06/24 01:37:23;;;;;;;6.60;4.05;;;;;;;16.56;83.12;100208.84;5029601;28;20025;-74
2022/06/24 01:39:49;;;;;;;7.00;3.72;;;;;;;16.77;82.94;100239.44;5013025;28;20500;-75
2022/06/24 01:42:14;;;;;;;5.80;4.10;;;;;;;16.75;83.01;100241.19;5029367;28;20061;-77
2022/06/24 01:44:40;;;;;;;10.13;4.15;;;;;;;16.70;82.59;100232.41;5029387;28;20065;-76
2022/06/24 01:47:06;;;;;;;7.88;3.92;;;;;;;16.76;81.11;100229.88;5028163;28;20140;-77
2022/06/24 01:49:31;;;;;;;7.38;3.53;;;;;;;16.36;80.91;100159.19;5029001;28;20453;-74
2022/06/24 01:52:00;;;;;;;8.48;3.92;;;;;;;16.12;81.67;100151.16;5028951;28;20042;-75
2022/06/24 01:54:27;;;;;;;6.03;3.95;;;;;;;16.41;83.07;100227.84;5009535;28;20072;-77
2022/06/24 01:56:53;;;;;;;8.38;3.72;;;;;;;15.97;84.95;100216.13;5015322;28;20554;-73
2022/06/24 01:59:20;;;;;;;6.50;3.97;;;;;;;16.01;85.53;100217.91;5011634;28;20025;-79
2022/06/24 02:01:45;;;;;;;4.88;3.80;;;;;;;15.79;85.72;100190.75;5025540;28;20037;-77
2022/06/24 02:04:12;;;;;;;5.85;3.90;;;;;;;16.18;86.23;100250.19;5031858;28;20029;-74
2022/06/24 02:06:37;;;;;;;7.47;4.20;;;;;;;15.98;85.88;100204.84;5031606;28;20021;-74
2022/06/24 02:09:04;;;;;;;5.82;4.05;;;;;;;16.30;85.09;100253.81;5031278;28;20051;-74
2022/06/24 02:14:14;;;;;;;11.52;4.28;;;;;;;16.25;83.88;100242.44;5031038;28;20035;-80
2022/06/24 02:16:40;;;;;;;9.52;4.35;;;;;;;16.27;83.16;100265.03;5031559;28;20108;-74
2022/06/24 02:19:06;;;;;;;9.73;4.35;;;;;;;16.25;83.96;100258.97;5031283;28;20083;-76
2022/06/24 02:21:32;;;;;;;6.97;4.15;;;;;;;16.00;84.51;100226.59;5030823;28;20018;-81
2022/06/24 02:23:58;;;;;;;7.00;3.85;;;;;;;15.68;87.60;100258.28;5031114;28;20033;-75
2022/06/24 02:26:25;;;;;;;12.75;4.10;;;;;;;15.52;88.40;100246.78;5012339;28;20040;-73
2022/06/24 02:28:51;;;;;;;10.07;3.67;;;;;;;15.62;88.55;100251.25;5031189;28;20033;-74
2022/06/24 02:31:17;;;;;;;7.03;3.80;;;;;;;15.58;87.22;100246.00;5023528;28;20026;-75
2022/06/24 02:33:43;;;;;;;11.15;4.65;;;;;;;15.49;85.88;100212.94;5010350;28;20056;-76
2022/06/24 02:36:08;;;;;;;11.30;4.35;;;;;;;15.87;85.02;100267.22;5010573;28;20038;-71
2022/06/24 02:38:34;;;;;;;9.80;4.00;;;;;;;15.90;84.14;100255.97;5022638;28;20036;-74
2022/06/24 02:41:00;;;;;;;8.60;4.20;;;;;;;16.08;82.60;100256.16;5030936;28;20030;-73
2022/06/24 02:43:36;;;;;;;12.32;4.03;;;;;;;16.12;82.05;100257.06;5030533;28;20763;-73
2022/06/24 02:46:07;;;;;;;10.63;4.50;;;;;;;16.12;82.23;100259.69;5030802;28;20057;-72
2022/06/24 02:48:35;;;;;;;10.77;4.45;;;;;;;15.90;82.34;100219.50;5030558;28;20459;-72
2022/06/24 02:51:02;;;;;;;9.07;3.65;;;;;;;16.01;82.16;100246.53;5030821;28;20163;-77
2022/06/24 02:53:29;;;;;;;10.23;4.25;;;;;;;16.04;82.71;100248.28;5030299;28;20023;-72
2022/06/24 02:55:57;;;;;;;8.38;3.95;;;;;;;15.47;83.17;100168.69;5030742;28;20041;-71
2022/06/24 02:58:23;;;;;;;8.85;4.00;;;;;;;15.79;83.89;100224.59;5030845;28;20476;-73
2022/06/24 03:00:49;;;;;;;10.02;4.53;;;;;;;15.73;84.21;100203.69;5031125;28;20079;-74
2022/06/24 03:03:16;;;;;;;12.13;5.03;;;;;;;15.99;85.20;100243.94;5030365;28;20028;-74
2022/06/24 03:05:43;;;;;;;5.85;4.32;;;;;;;15.71;86.23;100208.00;5030444;28;20044;-72
2022/06/24 03:08:10;;;;;;;10.93;5.05;;;;;;;15.58;86.38;100183.56;5030057;28;20064;-75
2022/06/24 03:10:37;;;;;;;6.90;4.50;;;;;;;15.89;87.28;100244.69;5030677;28;20401;-71
2022/06/24 03:13:02;;;;;;;7.10;4.40;;;;;;;15.84;88.02;100229.00;5030597;28;20025;-72
2022/06/24 03:15:28;;;;;;;7.47;4.68;;;;;;;15.65;88.05;100194.06;5030368;28;20052;-73
2022/06/24 03:17:54;;;;;;;7.30;4.47;;;;;;;15.78;88.64;100221.09;5030277;28;20101;-73
2022/06/24 03:20:20;;;;;;;6.88;4.55;;;;;;;15.91;89.02;100248.16;5030398;28;20032;-72
2022/06/24 03:22:45;;;;;;;8.80;4.55;;;;;;;15.81;89.15;100248.88;5029906;28;20063;-73
2022/06/24 03:25:10;;;;;;;6.57;4.15;;;;;;;15.21;90.14;100183.97;5012475;28;20731;-76
2022/06/24 03:27:37;;;;;;;7.90;4.70;;;;;;;15.42;90.88;100243.19;5029930;28;20025;-75
2022/06/24 03:30:04;;;;;;;6.70;5.32;;;;;;;15.40;91.11;100247.50;5030068;28;20519;-75
2022/06/24 03:32:30;;;;;;;9.52;4.50;;;;;;;14.95;91.67;100186.19;5030112;28;20029;-76
2022/06/24 03:34:55;;;;;;;7.00;4.80;;;;;;;15.25;91.64;100245.56;5030156;28;20107;-73
2022/06/24 03:37:21;;;;;;;5.88;4.60;;;;;;;15.36;91.92;100267.41;5029612;28;20400;-73
2022/06/24 03:39:46;;;;;;;6.60;4.43;;;;;;;15.40;91.79;100272.66;5030297;28;20021;-75
2022/06/24 03:42:12;;;;;;;8.13;5.32;;;;;;;15.26;91.36;100236.91;5030214;28;20084;-74
2022/06/24 03:44:37;;;;;;;8.30;4.40;;;;;;;15.57;90.93;100262.47;5030135;28;20083;-74
2022/06/24 03:47:03;;;;;;;7.97;4.80;;;;;;;15.51;91.47;100255.44;5030239;28;20120;-75
2022/06/24 03:49:29;;;;;;;7.13;4.53;;;;;;;15.69;91.69;100267.84;5030192;28;20487;-75
2022/06/24 03:51:54;;;;;;;11.80;5.05;;;;;;;15.66;91.51;100244.38;5029962;28;20116;-76
2022/06/24 03:54:20;;;;;;;8.38;4.82;;;;;;;15.53;91.90;100205.19;5030074;28;20087;-79
2022/06/24 03:56:45;;;;;;;6.68;4.57;;;;;;;15.89;91.92;100249.00;5030217;28;20036;-75
2022/06/24 03:59:11;;;;;;;7.18;4.60;;;;;;;16.05;92.35;100250.94;5030066;28;20480;-75
2022/06/24 04:01:37;;;;;;;6.70;4.57;;;;;;;16.15;92.31;100257.13;5029834;28;20033;-74
2022/06/24 04:04:02;;;;;;;6.28;4.80;;;;;;;16.31;92.92;100260.75;5030008;28;20029;-74
2022/06/24 04:06:28;;;;;;;7.00;5.38;;;;;;;16.27;94.10;100243.34;5029359;28;20025;-73
2022/06/24 04:08:54;;;;;;;10.70;4.65;;;;;;;16.46;94.08;100260.91;5011267;28;20054;-73
2022/06/24 04:11:20;;;;;;;9.95;5.45;;;;;;;16.37;94.44;100215.66;5029917;28;20025;-75
2022/06/24 04:13:45;;;;;;;10.27;5.65;;;;;;;16.57;94.28;100240.13;5030001;28;20491;-73
2022/06/24 04:16:11;;;;;;;6.30;5.18;;;;;;;16.61;94.25;100234.13;5029977;28;20076;-73
2022/06/24 04:18:37;;;;;;;9.05;5.88;;;;;;;16.71;94.65;100253.31;5029386;28;20028;-77
2022/06/24 04:21:10;;;;;;;9.05;5.22;;;;;;;16.36;95.33;100198.28;5029761;28;20025;-73
2022/06/24 04:23:36;;;;;;;7.38;4.63;;;;;;;16.72;95.50;100256.78;5029862;28;20032;-72
2022/06/24 04:26:01;;;;;;;8.30;5.72;;;;;;;16.76;96.79;100263.75;5029802;28;20029;-74
2022/06/24 04:28:27;;;;;;;10.43;5.63;;;;;;;16.56;98.07;100256.66;5029817;28;20400;-74
2022/06/24 04:30:52;;;;;;;9.15;5.93;;;;;;;16.23;98.13;100192.94;5029523;28;20057;-75
2022/06/24 04:33:18;;;;;;;12.57;5.80;;;;;;;16.76;98.18;100271.56;5029521;28;20026;-74
2022/06/24 04:35:43;;;;;;;8.63;6.25;;;;;;;16.54;98.25;100219.28;5029332;28;20037;-74
2022/06/24 04:38:09;;;;;;;7.63;6.22;;;;;;;16.93;98.48;100270.00;5029787;28;20121;-72
2022/06/24 04:40:34;;;;;;;8.90;6.53;;;;;;;16.91;98.54;100252.56;5029684;28;20032;-73
2022/06/24 04:42:59;;;;;;;9.60;6.13;;;;;;;16.96;99.25;100246.56;5029368;28;20560;-75
2022/06/24 04:45:25;;;;;;;8.80;6.32;;;;;;;17.09;100.00;100264.91;5032248;28;20017;-78
2022/06/24 04:47:50;;;;;;;8.88;6.25;;;;;;;16.79;99.97;100211.66;5032926;28;20037;-73
2022/06/24 04:50:16;;;;;;;9.25;6.13;;;;;;;17.01;100.00;100235.28;5032918;28;20021;-74
2022/06/24 04:52:41;;;;;;;8.30;6.53;;;;;;;17.15;98.99;100251.91;5033087;28;20044;-72
2022/06/24 04:55:07;;;;;;;8.23;6.10;;;;;;;17.37;99.00;100286.84;5033182;28;20091;-75
2022/06/24 04:57:33;;;;;;;8.35;5.82;;;;;;;17.48;98.72;100281.66;5032784;28;20030;-73
2022/06/24 04:59:59;;;;;;;10.30;5.90;;;;;;;17.59;97.14;100287.81;5033098;28;20030;-71
2022/06/24 05:02:25;;;;;;;13.82;6.45;;;;;;;17.00;97.70;100199.63;5032798;28;20464;-74
2022/06/24 05:04:50;;;;;;;9.55;6.70;;;;;;;17.56;98.65;100276.53;5032371;28;20444;-72
2022/06/24 05:07:16;;;;;;;13.13;6.25;;;;;;;17.63;97.81;100278.28;5032730;28;20025;-72
2022/06/24 05:09:42;;;;;;;8.45;6.10;;;;;;;17.70;98.12;100287.03;5032622;28;20476;-72
2022/06/24 05:12:09;;;;;;;9.23;6.05;;;;;;;17.77;97.73;100279.22;5032752;28;20052;-72
2022/06/24 05:14:35;;;;;;;13.57;6.57;;;;;;;17.82;97.96;100274.03;5032447;28;20036;-73
2022/06/24 05:17:02;;;;;;;11.45;6.30;;;;;;;17.91;99.98;100255.75;5032608;28;20025;-73
2022/06/24 05:19:28;;;;;;;10.05;6.93;;;;;;;18.03;99.47;100285.44;5032167;28;20116;-76
2022/06/24 05:21:54;;;;;;;11.07;6.95;;;;;;;18.05;99.61;100283.72;5032514;28;20173;-74
2022/06/24 05:24:20;;;;;;;7.93;5.88;;;;;;;17.61;98.21;100214.75;5032742;28;20029;-73
2022/06/24 05:26:46;;;;;;;8.05;6.25;;;;;;;17.91;98.26;100275.78;5032300;28;20099;-74
2022/06/24 05:29:12;;;;;;;10.60;6.32;;;;;;;18.01;98.41;100276.75;5032674;28;20025;-73
2022/06/24 05:31:38;;;;;;;8.85;6.43;;;;;;;18.17;97.61;100272.41;5032441;28;20036;-74
2022/06/24 05:34:03;;;;;;;7.45;6.13;;;;;;;18.27;97.24;100268.97;5032027;28;20029;-74
2022/06/24 05:36:29;;;;;;;9.75;6.35;;;;;;;18.46;96.38;100287.31;5014691;28;20439;-75
2022/06/24 05:38:55;;;;;;;9.48;6.75;;;;;;;18.34;96.77;100257.63;5032683;28;20040;-73
2022/06/24 05:41:20;;;;;;;10.90;6.45;;;;;;;18.70;95.93;100283.81;5031959;28;20063;-73
2022/06/24 05:43:46;;;;;;;9.20;6.50;;;;;;;18.84;94.85;100282.09;5032300;28;20033;-73
2022/06/24 05:46:13;;;;;;;10.00;6.30;;;;;;;19.00;94.42;100279.50;5031979;28;20036;-74
2022/06/24 05:48:39;;;;;;;8.93;6.05;;;;;;;18.59;93.61;100201.03;5031649;28;20026;-73
2022/06/24 05:51:16;;;;;;;11.40;7.38;;;;;;;19.20;92.68;100277.75;5031572;28;20495;-73
2022/06/24 05:56:27;;;;;;;8.68;6.65;;;;;;;19.27;91.98;100273.34;5030790;28;20036;-74
2022/06/24 05:58:52;;;;;;;7.28;6.05;;;;;;;19.45;91.53;100268.94;5031602;28;20034;-74
2022/06/24 06:01:18;;;;;;;8.85;7.38;;;;;;;19.55;90.81;100271.53;5031340;28;20041;-74
2022/06/24 06:03:43;;;;;;;8.73;7.15;;;;;;;19.66;92.26;100273.25;5031991;28;20087;-73
2022/06/24 06:06:09;;;;;;;9.10;6.88;;;;;;;19.74;91.55;100284.56;5031717;28;20025;-74
2022/06/24 06:08:36;;;;;;;9.52;6.65;;;;;;;19.86;91.57;100281.03;5031483;28;20040;-74
2022/06/24 06:11:12;;;;;;;7.03;6.22;;;;;;;19.99;90.15;100268.78;5031409;28;20516;-74
2022/06/24 06:13:42;;;;;;;7.95;5.88;;;;;;;20.18;88.18;100266.91;5013214;28;20029;-75
2022/06/24 06:16:08;;;;;;;9.38;6.40;;;;;;;20.34;87.21;100284.28;5028529;28;20061;-74
2022/06/24 06:18:33;;;;;;;10.57;6.68;;;;;;;20.40;89.37;100283.41;5027458;28;20481;-76
2022/06/24 06:21:00;;;;;;;8.05;6.15;;;;;;;20.38;88.01;100266.78;5031482;28;20033;-73
2022/06/24 06:23:28;;;;;;;8.20;6.38;;;;;;;20.20;89.83;100224.09;5013351;28;20477;-73
2022/06/24 06:25:54;;;;;;;7.47;6.25;;;;;;;20.55;88.21;100276.28;5011050;28;20040;-74
2022/06/24 06:28:19;;;;;;;7.65;6.13;;;;;;;20.61;85.88;100269.25;5011432;28;20041;-74
2022/06/24 06:30:45;;;;;;;8.48;5.88;;;;;;;20.89;82.80;100276.94;5025437;28;20459;-73
2022/06/24 06:33:10;;;;;;;7.65;5.68;;;;;;;20.85;84.20;100280.47;5030931;28;20033;-75
2022/06/24 06:35:36;;;;;;;8.55;6.10;;;;;;;20.83;83.00;100269.09;5019684;28;20049;-76
2022/06/24 06:38:01;;;;;;;7.80;6.13;;;;;;;20.87;87.83;100280.44;5026136;28;20034;-75
2022/06/24 06:40:27;;;;;;;10.82;6.22;;;;;;;20.62;85.45;100231.66;5017196;28;20030;-77
2022/06/24 06:42:55;;;;;;;8.32;5.65;;;;;;;20.84;85.98;100270.84;5009787;28;20494;-74
2022/06/24 06:45:21;;;;;;;9.63;5.80;;;;;;;21.11;83.02;100282.84;5010659;28;20684;-76
2022/06/24 06:47:46;;;;;;;9.45;5.75;;;;;;;21.33;84.50;100287.88;5010684;28;20124;-75
2022/06/24 06:50:12;;;;;;;9.55;5.82;;;;;;;21.39;86.64;100284.34;5010410;28;20117;-76
2022/06/24 06:52:37;;;;;;;10.05;5.40;;;;;;;21.38;83.80;100272.94;5010529;28;20026;-75
2022/06/24 06:55:03;;;;;;;7.10;5.13;;;;;;;21.31;79.05;100239.78;5011327;28;20033;-75
2022/06/24 06:57:29;;;;;;;8.38;4.63;;;;;;;21.38;78.39;100232.69;5009586;28;20072;-77
2022/06/24 06:59:54;;;;;;;8.23;4.88;;;;;;;21.79;76.82;100278.63;5010525;28;20067;-75
2022/06/24 07:02:19;;;;;;;8.82;5.03;;;;;;;21.91;77.68;100290.78;5010244;28;20034;-76
2022/06/24 07:04:45;;;;;;;9.50;4.78;;;;;;;21.79;74.62;100250.63;4992939;28;20021;-77
2022/06/24 07:07:10;;;;;;;8.70;5.03;;;;;;;21.96;74.87;100260.03;5009746;28;20037;-75
2022/06/24 07:09:36;;;;;;;7.15;4.57;;;;;;;21.83;73.91;100217.25;5011473;28;20040;-77
2022/06/24 07:12:01;;;;;;;11.73;5.43;;;;;;;22.29;74.17;100284.09;5024993;28;20025;-76
2022/06/24 07:14:26;;;;;;;9.10;4.47;;;;;;;22.52;74.17;100285.53;5011105;28;20018;-77
2022/06/24 07:16:52;;;;;;;13.73;4.82;;;;;;;22.56;76.34;100256.53;5009921;28;20034;-75
2022/06/24 07:19:17;;;;;;;9.10;4.25;;;;;;;22.68;73.57;100250.22;5008688;28;20022;-75
2022/06/24 07:21:43;;;;;;;9.40;4.60;;;;;;;22.81;71.53;100242.97;5010156;28;20022;-74
2022/06/24 07:24:08;;;;;;;9.32;4.40;;;;;;;22.86;69.13;100241.13;5010283;28;20392;-76
2022/06/24 07:26:34;;;;;;;10.90;4.00;;;;;;;23.05;68.12;100239.06;5009448;28;20041;-74
2022/06/24 07:28:59;;;;;;;7.30;4.22;;;;;;;22.96;65.18;100241.00;4989694;28;20033;-75
2022/06/24 07:31:25;;;;;;;9.18;3.90;;;;;;;23.13;67.95;100264.34;4987774;28;20699;-71
2022/06/24 07:33:50;;;;;;;8.18;3.90;;;;;;;23.23;68.33;100261.56;4987900;28;20478;-74
2022/06/24 07:36:16;;;;;;;6.78;3.85;;;;;;;23.07;68.33;100231.97;4987629;28;20525;-73
2022/06/24 07:38:41;;;;;;;9.90;3.92;;;;;;;23.35;63.25;100264.88;4987617;28;20030;-73
2022/06/24 07:41:09;;;;;;;8.95;4.10;;;;;;;23.16;61.55;100209.91;4987353;28;20033;-75
2022/06/24 07:43:38;;;;;;;5.05;3.58;;;;;;;23.57;62.23;100263.53;4987452;28;20054;-75
2022/06/24 07:46:08;;;;;;;9.48;4.07;;;;;;;23.42;64.67;100226.97;4995559;28;20100;-72
2022/06/24 07:48:34;;;;;;;7.00;3.55;;;;;;;23.40;59.66;100198.03;5006948;28;20042;-74
2022/06/24 07:51:08;;;;;;;9.65;4.40;;;;;;;23.80;60.79;100263.97;5007193;28;20041;-72
2022/06/24 07:53:33;;;;;;;10.23;4.10;;;;;;;23.47;64.46;100195.28;5006912;28;20034;-73
2022/06/24 07:58:43;;;;;;;6.30;2.83;;;;;;;23.88;56.72;100262.03;4997470;28;20033;-72
2022/06/24 08:01:08;;;;;;;8.20;2.80;;;;;;;23.87;54.45;100240.06;5023361;28;20041;-74
2022/06/24 08:03:34;;;;;;;8.52;3.10;;;;;;;24.02;57.74;100238.91;5029480;28;20473;-73
2022/06/24 08:05:59;;;;;;;7.15;3.50;;;;;;;23.95;57.30;100237.31;5029207;28;20056;-74
2022/06/24 08:08:24;;;;;;;4.53;2.78;;;;;;;23.95;56.68;100237.31;5012102;28;20543;-73
2022/06/24 08:10:50;;;;;;;6.65;2.92;;;;;;;23.95;56.35;100234.69;5029562;28;20037;-72
2022/06/24 08:13:15;;;;;;;9.52;2.88;;;;;;;23.51;58.14;100176.72;5011991;28;20511;-74
2022/06/24 08:15:41;;;;;;;8.23;3.08;;;;;;;23.76;58.01;100239.44;5029677;28;20025;-77
2022/06/24 08:18:07;;;;;;;5.15;3.00;;;;;;;23.98;57.38;100260.13;5029749;28;20465;-76
2022/06/24 08:20:32;;;;;;;8.55;3.50;;;;;;;24.01;58.53;100263.56;5032610;28;20416;-76
2022/06/24 08:22:58;;;;;;;13.23;3.65;;;;;;;24.03;56.70;100248.53;5028411;28;20045;-73
2022/06/24 08:25:23;;;;;;;13.77;3.70;;;;;;;24.15;58.60;100257.06;5033316;28;20052;-76
2022/06/24 08:27:50;;;;;;;16.05;4.80;;;;;;;23.55;61.69;100153.78;5033056;28;20033;-76
2022/06/24 08:30:16;;;;;;;12.60;3.95;;;;;;;24.29;59.20;100246.19;5033479;28;20033;-80
2022/06/24 08:32:42;;;;;;;12.73;3.80;;;;;;;24.35;57.22;100243.41;5033048;28;20029;-82
2022/06/24 08:35:08;;;;;;;6.80;3.45;;;;;;;24.49;59.00;100243.13;5032964;28;20028;-76
2022/06/24 08:37:33;;;;;;;16.80;4.28;;;;;;;24.41;61.47;100197.56;5031640;28;20036;-74
2022/06/24 08:40:00;;;;;;;12.73;4.03;;;;;;;24.82;57.25;100237.91;5033200;28;20037;-75
2022/06/24 08:42:28;;;;;;;16.25;4.45;;;;;;;24.90;58.76;100232.41;5033029;28;20053;-74
2022/06/24 08:44:53;;;;;;;19.77;5.22;;;;;;;24.79;54.54;100209.81;5032956;28;20442;-75
2022/06/24 08:47:19;;;;;;;16.58;4.47;;;;;;;24.86;54.27;100218.44;5033211;28;20112;-76
2022/06/24 08:49:44;;;;;;;24.35;4.78;;;;;;;24.99;58.26;100232.19;5032693;28;20147;-75
2022/06/24 08:52:12;;;;;;;10.93;4.18;;;;;;;25.15;54.85;100227.38;5033083;28;20021;-74
2022/06/24 08:54:42;;;;;;;4.43;2.65;;;;;;;25.30;53.01;100234.84;5033020;28;20030;-74
2022/06/24 08:57:08;;;;;;;6.82;3.13;;;;;;;25.44;58.82;100220.44;5032673;28;20057;-77
2022/06/24 08:59:33;;;;;;;6.20;3.30;;;;;;;25.42;58.49;100223.13;5015059;28;20511;-75
2022/06/24 09:01:59;;;;;;;6.07;3.13;;;;;;;25.57;53.78;100227.09;5032526;28;20377;-76
2022/06/24 09:04:24;;;;;;;10.07;3.00;;;;;;;25.51;52.79;100196.41;5031757;28;20022;-76
2022/06/24 09:06:50;;;;;;;10.20;3.40;;;;;;;25.73;56.26;100210.78;5032046;28;20500;-75
2022/06/24 09:09:24;;;;;;;5.90;3.28;;;;;;;25.81;55.23;100214.06;5031647;28;20105;-78
2022/06/24 09:11:54;;;;;;;4.32;2.70;;;;;;;25.91;54.36;100223.44;5032107;28;20045;-74
2022/06/24 09:14:19;;;;;;;5.60;2.60;;;;;;;25.64;49.85;100167.81;5031834;28;20033;-72
2022/06/24 09:16:45;;;;;;;4.65;2.40;;;;;;;26.12;56.17;100205.16;5031430;28;20034;-80
2022/06/24 09:19:14;;;;;;;5.00;2.85;;;;;;;26.16;48.50;100198.88;5031440;28;20033;-74
2022/06/24 09:21:41;;;;;;;5.15;2.60;;;;;;;25.75;50.01;100134.91;5031607;28;20510;-75
2022/06/24 09:24:08;;;;;;;8.85;3.05;;;;;;;26.15;50.32;100194.50;5031596;28;20480;-75
2022/06/24 09:26:40;;;;;;;5.13;2.53;;;;;;;26.28;51.31;100201.13;5031619;28;20700;-74
2022/06/24 09:29:16;;;;;;;5.28;2.90;;;;;;;26.47;47.31;100208.47;5031337;28;20067;-77
2022/06/24 09:31:42;;;;;;;4.63;2.42;;;;;;;26.41;47.93;100182.22;5031289;28;22349;-77
2022/06/24 09:34:16;;;;;;;6.80;2.80;;;;;;;26.67;49.37;100206.91;5031777;28;20025;-76
2022/06/24 09:36:43;;;;;;;5.80;2.92;;;;;;;26.78;48.78;100202.13;5031577;28;20049;-76
2022/06/24 09:39:11;;;;;;;4.57;2.70;;;;;;;26.91;48.44;100189.34;5031621;28;20022;-77
2022/06/24 09:41:53;;;;;;;6.40;3.10;;;;;;;27.06;46.42;100201.19;4996416;28;20049;-82
2022/06/24 09:44:18;;;;;;;6.18;3.60;;;;;;;27.10;45.72;100186.91;5031326;28;20401;-77
2022/06/24 09:46:45;;;;;;;4.38;2.40;;;;;;;26.99;50.53;100141.38;5013407;28;20032;-75
2022/06/24 09:49:12;;;;;;;6.70;2.50;;;;;;;27.27;44.40;100181.00;5013488;28;20545;-78
2022/06/24 09:51:40;;;;;;;7.50;2.75;;;;;;;27.14;44.03;100175.25;5031407;28;20484;-75
2022/06/24 09:54:07;;;;;;;5.65;2.78;;;;;;;27.48;50.46;100194.38;5031065;28;20033;-76
2022/06/24 09:56:34;;;;;;;6.30;3.03;;;;;;;27.23;50.76;100131.69;5030688;28;20075;-77
2022/06/24 10:01:46;;;;;;;3.42;2.35;;;;;;;27.58;44.85;100140.09;5011465;28;20037;-75
2022/06/24 10:04:13;;;;;;;6.38;2.75;;;;;;;27.87;43.30;100175.19;5011286;28;20112;-75
2022/06/24 10:06:44;;;;;;;7.18;2.47;;;;;;;27.96;45.44;100169.50;5011140;28;20049;-77
2022/06/24 10:09:10;;;;;;;6.60;2.50;;;;;;;27.69;45.56;100176.78;5011057;28;20113;-75
2022/06/24 10:11:43;;;;;;;4.60;2.40;;;;;;;27.71;41.56;100159.88;5009816;28;20025;-75
2022/06/24 10:14:09;;;;;;;5.35;2.38;;;;;;;27.90;40.75;100164.44;5010852;28;20386;-75
2022/06/24 10:16:35;;;;;;;4.50;2.10;;;;;;;28.07;41.45;100151.41;5010938;28;20112;-75
2022/06/24 10:19:02;;;;;;;3.80;2.38;;;;;;;28.29;45.75;100155.84;5011776;28;20069;-74
2022/06/24 10:21:28;;;;;;;6.47;2.33;;;;;;;28.24;40.27;100148.06;5011135;28;20136;-76
2022/06/24 10:23:56;;;;;;;4.35;2.15;;;;;;;28.16;39.60;100152.81;5010776;28;20022;-75
2022/06/24 10:26:32;;;;;;;4.57;2.28;;;;;;;27.98;42.46;100088.06;5010857;28;20021;-77
2022/06/24 10:29:03;;;;;;;5.97;2.17;;;;;;;28.32;42.93;100141.56;5011627;28;20033;-75
2022/06/24 10:31:56;;;;;;;5.95;2.58;;;;;;;28.55;41.18;100160.03;5012107;28;20022;-76
2022/06/24 10:34:31;;;;;;;3.22;2.10;;;;;;;28.03;41.24;100103.81;5011113;28;20032;-77
2022/06/24 10:36:56;;;;;;;8.65;2.30;;;;;;;28.45;43.03;100156.06;5010675;28;20029;-76
2022/06/24 10:39:23;;;;;;;5.80;2.58;;;;;;;28.01;43.55;100140.16;5010664;28;20029;-75
2022/06/24 10:42:02;;;;;;;9.13;2.40;;;;;;;28.46;43.67;100157.75;5010267;28;20038;-76
2022/06/24 10:44:35;;;;;;;5.85;2.28;;;;;;;28.79;43.31;100143.97;5010161;28;20022;-76
2022/06/24 10:47:15;;;;;;;5.47;2.83;;;;;;;28.78;38.78;100136.94;5010055;28;20029;-75
2022/06/24 10:49:56;;;;;;;7.53;2.42;;;;;;;28.81;42.51;100150.09;5019743;28;20033;-78
2022/06/24 10:52:33;;;;;;;6.90;2.30;;;;;;;28.48;39.79;100139.13;5009400;28;20507;-78
2022/06/24 10:55:28;;;;;;;4.65;2.17;;;;;;;28.25;41.55;100146.25;5009476;28;20080;-76
2022/06/24 10:58:06;;;;;;;7.68;2.45;;;;;;;28.05;42.76;100141.78;4930067;29;20083;-77
2022/06/24 11:00:37;;;;;;;3.20;2.38;;;;;;;27.83;42.25;100117.91;4930228;29;20135;-77
2022/06/24 11:03:02;;;;;;;7.68;2.50;;;;;;;27.88;42.03;100151.25;4930329;29;20176;-77
2022/06/24 11:05:34;;;;;;;6.78;2.70;;;;;;;27.43;43.03;100097.34;4930010;29;20489;-78
2022/06/24 11:08:00;;;;;;;5.32;2.40;;;;;;;27.46;41.80;100138.75;4930126;29;20061;-75
2022/06/24 11:10:31;;;;;;;3.78;2.30;;;;;;;27.62;43.89;100146.16;4926515;29;20039;-76
2022/06/24 11:12:59;;;;;;;2.63;2.10;;;;;;;27.72;42.40;100152.81;4911059;29;20080;-79
2022/06/24 11:15:42;;;;;;;7.28;2.63;;;;;;;27.68;43.46;100132.63;4913964;29;20517;-75
2022/06/24 11:18:09;;;;;;;5.00;2.70;;;;;;;27.60;43.66;100098.44;4912142;29;20032;-80
2022/06/24 11:20:37;;;;;;;4.70;2.30;;;;;;;28.31;44.86;100124.75;4930493;29;20042;-77
2022/06/24 11:23:07;;;;;;;5.00;2.53;;;;;;;28.65;41.53;100118.00;4898423;29;20046;-78
2022/06/24 11:25:34;;;;;;;5.75;2.53;;;;;;;29.11;46.59;100133.72;4913789;29;20036;-77
2022/06/24 11:27:59;;;;;;;5.03;2.33;;;;;;;29.34;44.17;100099.91;4928823;29;20035;-74
2022/06/24 11:30:25;;;;;;;9.65;2.70;;;;;;;29.66;41.70;100105.47;4909253;29;20047;-81
2022/06/24 11:32:55;;;;;;;5.15;2.50;;;;;;;29.78;43.77;100128.81;4910906;29;20074;-80
2022/06/24 11:35:22;;;;;;;3.45;2.40;;;;;;;29.73;41.94;100098.91;4924345;29;20543;-78